createdAt,value
2022-10-30T00:00:24.249Z,53.36
2022-10-30T00:05:27.005Z,53.30
2022-10-30T00:10:29.157Z,53.12
2022-10-30T00:15:31.456Z,53.05
2022-10-30T00:20:36.199Z,53.62
2022-10-30T00:25:38.511Z,53.74
2022-10-30T00:30:41.074Z,53.33
2022-10-30T00:35:49.438Z,53.48
2022-10-30T00:40:51.894Z,53.81
2022-10-30T00:45:54.517Z,53.71
2022-10-30T00:51:00.466Z,53.65
2022-10-30T00:56:07.513Z,53.96
2022-10-30T01:01:16.844Z,53.71
2022-10-30T01:06:20.090Z,54.14
2022-10-30T01:11:22.398Z,54.67
2022-10-30T01:16:43.468Z,55.32
2022-10-30T01:22:07.510Z,54.67
2022-10-30T01:27:28.400Z,54.89
2022-10-30T01:32:40.458Z,54.93
2022-10-30T01:37:58.507Z,54.64
2022-10-30T01:43:01.336Z,54.76
2022-10-30T01:48:41.952Z,54.86
2022-10-30T01:53:54.303Z,55.24
2022-10-30T01:59:16.142Z,55.47
2022-10-30T02:04:18.605Z,55.70
2022-10-30T02:09:20.936Z,55.40
2022-10-30T02:14:32.171Z,55.56
2022-10-30T02:19:35.115Z,55.17
2022-10-30T02:24:37.491Z,56.02
2022-10-30T02:29:39.724Z,56.31
2022-10-30T02:34:43.482Z,56.16
2022-10-30T02:39:45.801Z,56.27
2022-10-30T02:44:48.157Z,56.57
2022-10-30T02:49:50.318Z,55.93
2022-10-30T02:54:52.689Z,56.62
2022-10-30T02:59:54.924Z,56.00
2022-10-30T03:04:57.131Z,56.05
2022-10-30T03:09:59.345Z,56.35
2022-10-30T03:15:01.516Z,56.15
2022-10-30T03:20:03.930Z,56.38
2022-10-30T03:25:06.644Z,56.00
2022-10-30T03:30:09.725Z,57.20
2022-10-30T03:35:11.947Z,57.58
2022-10-30T03:40:14.221Z,57.30
2022-10-30T03:45:16.602Z,57.45
2022-10-30T03:50:18.828Z,56.89
2022-10-30T03:55:21.555Z,56.91
2022-10-30T04:00:23.786Z,57.79
2022-10-30T04:05:27.909Z,57.32
2022-10-30T04:10:30.370Z,57.44
2022-10-30T04:15:33.537Z,57.34
2022-10-30T04:20:35.764Z,58.01
2022-10-30T04:25:37.944Z,57.79
2022-10-30T04:30:40.944Z,57.68
2022-10-30T04:35:43.507Z,57.92
2022-10-30T04:40:45.900Z,57.98
2022-10-30T04:45:48.085Z,57.65
2022-10-30T04:50:50.382Z,58.24
2022-10-30T04:55:56.333Z,57.60
2022-10-30T05:01:06.333Z,57.67
2022-10-30T05:06:13.815Z,57.30
2022-10-30T05:11:16.767Z,58.16
2022-10-30T05:16:19.106Z,58.26
2022-10-30T05:21:21.446Z,58.67
2022-10-30T05:26:24.236Z,59.15
2022-10-30T05:31:26.420Z,58.74
2022-10-30T05:36:28.670Z,59.09
2022-10-30T05:41:31.159Z,58.86
2022-10-30T05:46:33.522Z,58.81
2022-10-30T05:51:38.160Z,58.93
2022-10-30T05:56:42.823Z,58.71
2022-10-30T06:06:52.290Z,58.96
2022-10-30T06:11:54.952Z,58.70
2022-10-30T06:16:57.280Z,58.75
2022-10-30T06:21:59.604Z,58.25
2022-10-30T06:27:01.960Z,58.65
2022-10-30T06:32:06.720Z,58.30
2022-10-30T06:37:09.403Z,58.35
2022-10-30T06:42:11.635Z,58.56
2022-10-30T06:47:13.932Z,58.03
2022-10-30T06:52:16.105Z,57.58
2022-10-30T06:57:18.346Z,57.53
2022-10-30T07:02:20.839Z,57.43
2022-10-30T07:07:23.135Z,57.27
2022-10-30T07:12:25.472Z,57.50
2022-10-30T07:17:27.696Z,56.75
2022-10-30T07:22:29.903Z,56.70
2022-10-30T07:27:32.099Z,56.22
2022-10-30T07:32:34.443Z,55.92
2022-10-30T07:37:36.683Z,55.87
2022-10-30T07:42:38.865Z,55.21
2022-10-30T07:47:42.441Z,54.86
2022-10-30T07:52:44.852Z,54.50
2022-10-30T07:57:47.126Z,54.63
2022-10-30T08:02:52.907Z,53.92
2022-10-30T08:07:55.662Z,53.58
2022-10-30T08:12:58.072Z,53.26
2022-10-30T08:18:00.708Z,52.24
2022-10-30T08:23:03.351Z,51.97
2022-10-30T08:28:07.353Z,51.29
2022-10-30T08:33:16.044Z,50.71
2022-10-30T08:38:18.455Z,50.53
2022-10-30T08:43:21.231Z,50.25
2022-10-30T08:48:23.584Z,50.21
2022-10-30T08:53:25.970Z,49.58
2022-10-30T08:58:28.722Z,49.13
2022-10-30T09:03:30.913Z,48.97
2022-10-30T09:08:33.096Z,48.70
2022-10-30T09:13:36.004Z,48.80
2022-10-30T09:18:38.420Z,48.19
2022-10-30T09:23:42.760Z,47.63
2022-10-30T09:28:45.074Z,47.76
2022-10-30T09:33:47.300Z,47.40
2022-10-30T09:38:49.505Z,46.59
2022-10-30T09:44:22.716Z,46.70
2022-10-30T09:49:38.451Z,46.45
2022-10-30T09:54:57.057Z,45.89
2022-10-30T10:00:02.241Z,44.83
2022-10-30T10:05:21.986Z,44.21
2022-10-30T10:10:30.217Z,44.54
2022-10-30T10:15:35.539Z,43.41
2022-10-30T10:20:44.446Z,43.85
2022-10-30T10:25:54.692Z,43.37
2022-10-30T10:31:13.249Z,43.37
2022-10-30T10:36:29.947Z,42.68
2022-10-30T10:42:06.247Z,42.20
2022-10-30T10:47:51.777Z,41.75
2022-10-30T10:53:02.318Z,41.62
2022-10-30T10:58:26.087Z,41.13
2022-10-30T11:03:48.451Z,40.81
2022-10-30T11:08:53.905Z,40.07
2022-10-30T11:13:56.596Z,39.27
2022-10-30T11:19:02.036Z,38.91
2022-10-30T11:24:04.397Z,38.88
2022-10-30T11:29:15.667Z,38.29
2022-10-30T11:34:17.799Z,37.98
2022-10-30T11:39:35.849Z,37.96
2022-10-30T11:44:50.911Z,37.66
2022-10-30T11:49:57.501Z,37.12
2022-10-30T11:55:30.550Z,36.78
2022-10-30T12:00:36.646Z,36.52
2022-10-30T12:05:42.427Z,36.21
2022-10-30T12:10:51.806Z,35.88
2022-10-30T12:16:09.458Z,35.88
2022-10-30T12:21:20.366Z,35.35
2022-10-30T12:26:23.800Z,35.00
2022-10-30T12:31:32.116Z,34.37
2022-10-30T12:36:42.626Z,33.87
2022-10-30T12:42:03.287Z,34.02
2022-10-30T12:47:51.492Z,33.56
2022-10-30T12:53:03.029Z,33.32
2022-10-30T12:58:33.970Z,32.86
2022-10-30T13:03:58.661Z,32.72
2022-10-30T13:09:24.588Z,32.63
2022-10-30T13:14:37.851Z,32.31
2022-10-30T13:19:47.935Z,32.24
2022-10-30T13:25:05.353Z,32.38
2022-10-30T13:30:11.536Z,32.17
2022-10-30T13:35:22.871Z,32.19
2022-10-30T13:40:47.389Z,31.71
2022-10-30T13:46:11.790Z,31.25
2022-10-30T13:51:35.805Z,31.40
2022-10-30T13:56:38.578Z,30.74
2022-10-30T14:01:49.789Z,30.55
2022-10-30T14:07:17.088Z,30.56
2022-10-30T14:12:43.941Z,30.05
2022-10-30T14:18:24.863Z,29.90
2022-10-30T14:23:36.051Z,29.41
2022-10-30T14:28:40.724Z,29.06
2022-10-30T14:33:56.635Z,29.16
2022-10-30T14:39:29.286Z,29.27
2022-10-30T14:44:53.487Z,28.93
2022-10-30T14:49:58.693Z,28.87
2022-10-30T14:55:26.476Z,29.70
2022-10-30T15:00:48.931Z,30.27
2022-10-30T15:05:51.644Z,30.85
2022-10-30T15:11:29.652Z,31.45
2022-10-30T15:16:37.269Z,32.10
2022-10-30T15:21:44.704Z,32.37
2022-10-30T15:26:59.761Z,33.33
2022-10-30T15:32:04.879Z,34.17
2022-10-30T15:37:13.630Z,34.65
2022-10-30T15:42:16.599Z,35.24
2022-10-30T15:47:21.396Z,35.80
2022-10-30T15:52:32.984Z,36.45
2022-10-30T16:03:14.213Z,37.76
2022-10-30T16:08:20.511Z,37.48
2022-10-30T16:13:32.446Z,38.25
2022-10-30T16:18:36.618Z,38.60
2022-10-30T16:23:47.873Z,39.07
2022-10-30T16:28:50.237Z,39.39
2022-10-30T16:33:53.125Z,40.14
2022-10-30T16:38:56.543Z,40.46
2022-10-30T16:44:27.859Z,40.21
2022-10-30T16:49:32.921Z,41.25
2022-10-30T16:54:41.197Z,42.11
2022-10-30T16:59:51.336Z,41.83
2022-10-30T17:04:58.575Z,42.10
2022-10-30T17:10:01.055Z,42.59
2022-10-30T17:15:13.909Z,42.65
2022-10-30T17:20:23.955Z,42.91
2022-10-30T17:25:37.138Z,42.98
2022-10-30T17:30:43.899Z,43.22
2022-10-30T17:35:46.120Z,43.13
2022-10-30T17:40:49.451Z,43.27
2022-10-30T17:45:51.964Z,43.65
2022-10-30T17:50:54.776Z,44.11
2022-10-30T17:56:04.746Z,44.40
2022-10-30T18:01:07.373Z,44.43
2022-10-30T18:06:17.777Z,44.54
2022-10-30T18:11:22.841Z,44.69
2022-10-30T18:16:25.824Z,45.01
2022-10-30T18:21:28.125Z,45.11
2022-10-30T18:26:30.720Z,44.77
2022-10-30T18:31:32.989Z,45.37
2022-10-30T18:36:35.173Z,45.34
2022-10-30T18:41:41.162Z,45.55
2022-10-30T18:46:46.027Z,45.44
2022-10-30T18:51:48.411Z,45.55
2022-10-30T18:56:50.594Z,45.70
2022-10-30T19:01:53.129Z,45.38
2022-10-30T19:06:55.620Z,45.01
2022-10-30T19:11:58.029Z,45.27
2022-10-30T19:17:00.400Z,44.81
2022-10-30T19:22:02.740Z,45.21
2022-10-30T19:27:05.168Z,45.47
2022-10-30T19:32:07.364Z,45.26
2022-10-30T19:37:10.161Z,45.52
2022-10-30T19:42:12.343Z,45.46
2022-10-30T19:47:14.733Z,46.13
2022-10-30T19:52:17.164Z,45.68
2022-10-30T19:57:19.411Z,45.98
2022-10-30T20:02:21.765Z,45.38
2022-10-30T20:07:24.235Z,45.33
2022-10-30T20:12:26.524Z,45.46
2022-10-30T20:17:29.049Z,45.38
2022-10-30T20:22:31.266Z,45.52
2022-10-30T20:27:33.523Z,45.70
2022-10-30T20:32:35.880Z,45.92
2022-10-30T20:37:38.153Z,46.20
2022-10-30T20:42:40.634Z,47.07
2022-10-30T20:47:43.917Z,46.60
2022-10-30T20:52:46.926Z,46.51
2022-10-30T20:57:49.151Z,46.79
2022-10-30T21:02:51.750Z,46.66
2022-10-30T21:07:54.269Z,46.89
2022-10-30T21:12:58.921Z,46.83
2022-10-30T21:18:04.440Z,46.90
2022-10-30T21:23:07.138Z,46.64
2022-10-30T21:28:09.368Z,47.08
2022-10-30T21:33:11.681Z,47.03
2022-10-30T21:38:13.942Z,47.00
2022-10-30T21:43:16.153Z,47.30
2022-10-30T21:48:18.488Z,47.12
2022-10-30T21:53:20.848Z,47.53
2022-10-30T21:58:23.229Z,48.23
2022-10-30T22:03:25.821Z,48.56
2022-10-30T22:08:28.250Z,49.05
2022-10-30T22:13:30.583Z,49.50
2022-10-30T22:18:33.657Z,49.23
2022-10-30T22:23:37.857Z,49.17
2022-10-30T22:28:40.093Z,49.27
2022-10-30T22:33:44.372Z,49.49
2022-10-30T22:38:48.011Z,49.51
2022-10-30T22:43:51.562Z,49.66
2022-10-30T22:48:53.982Z,49.59
2022-10-30T22:54:01.307Z,49.54
2022-10-30T22:59:06.373Z,49.72
2022-10-30T23:04:11.317Z,49.90
2022-10-30T23:09:21.681Z,50.03
2022-10-30T23:14:27.376Z,50.06
2022-10-30T23:19:30.039Z,49.88
2022-10-30T23:24:32.434Z,49.72
2022-10-30T23:29:34.607Z,49.52
2022-10-30T23:34:36.814Z,49.99
2022-10-30T23:39:38.993Z,50.27
2022-10-30T23:44:41.219Z,50.21
2022-10-30T23:49:43.463Z,50.13
2022-10-30T23:54:45.943Z,50.26
2022-10-30T23:59:48.390Z,50.12
